Terminal Aerodrome Forecast
Issued by NWS

Home | Current Version | Previous Version | Text Only | Print | Product List | Glossary On
Versions: 1 2 3 4 5 6 7 8 9 10 11 12 13 14 15 16 17 18 19 20 21 22
000
FTAK31 PAFA 162335
TAFASC
TAF
PASC 162335Z 1700/1724 05024G34KT 1/2SM SN BLSN FZFG OVC007
     FM171200 05024KT 1 1/2SM -SN BLSN BR BKN007 OVC015=

USA.gov is the U.S. government's official web portal to all federal, state and local government web resources and services.